Race Results for…
Salinas Valley Half Marathon 2018

August 04, 2018 Results presented by Salinas Valley Half Marathon and timed by SVE Timing
Participants:
1046
Last Updated:
8/9/2018 9:02:45 AM

Results are preliminary for 5 days.
Click your name to view a video of you finishing.

Stats

Leaderboards

Jump to a Leaderboard

5K

Male - Overall
Bib Name Gun Elapsed Chip Elapsed Pace City Age
1 2223 ANDREW ALONZO 00:18:00 00:17:58 SALINAS 18
2 2125 JOSE AGUSTIN MORALES 00:18:23 00:18:21 KING CITY 34
3 3009 NATHAN PIZANA 00:19:29 00:19:27 HOLLISTER 18
Female - Overall
Bib Name Gun Elapsed Chip Elapsed Pace City Age
1 2222 MARITZA RUELAS 00:22:07 00:22:05 GONZALES 24
2 3019 NAYELIE CUEVAS 00:25:12 00:25:09 GONZALES 14
3 2089 MA ELENA MOYA 00:25:26 00:25:22 SALINAS 49

HALF MARATHON

Male - Overall
Bib Name Gun Elapsed Chip Elapsed Pace City Age
1 26 DIEGO LEON 01:11:26 01:11:24 05:27 min/mile HOLLISTER 23
2 21 JORGE SANCHEZ 01:13:39 01:13:36 05:37 min/mile SALINAS 21
3 14 ANDREW MARTINEZ 01:14:28 01:14:26 05:40 min/mile SOLEDAD 20
Female - Overall
Bib Name Gun Elapsed Chip Elapsed Pace City Age
1 3 JEN BAYLISS 01:26:19 01:26:17 06:35 min/mile SANRAMON 47
2 7 LAN CLAYTON 01:28:18 01:28:15 06:44 min/mile SALINAS 50
3 13 AMY JOHNSTON 01:30:02 01:29:59 06:52 min/mile SALINAS 25

Overall Results

Tip: Swipe the results table to view more.
772 entrants …
HALF MARATHON Results
Bib Name City Gun Elapsed Chip Elapsed Pace Division Div Place Age Age Place Gender Gender Place
26 DIEGO LEON HOLLISTER 01:11:26 01:11:24 05:27 min/mile HALF MARATHON 1 23 O/A M 1
21 JORGE SANCHEZ SALINAS 01:13:39 01:13:36 05:37 min/mile HALF MARATHON 2 21 O/A M 2
14 ANDREW MARTINEZ SOLEDAD 01:14:28 01:14:26 05:40 min/mile HALF MARATHON 3 20 O/A M 3
12 SALVADOR GUERRERO CISNEROS OCOTLAN 01:15:35 01:15:33 05:46 min/mile HALF MARATHON 4 44 1 M 4
17 NICHOLAS MERILLANA ROYAL OAKS 01:15:58 01:15:54 05:47 min/mile HALF MARATHON 5 19 1 M 5
25 LUIS PEREZ GREENFIELD 01:16:02 01:16:00 05:48 min/mile HALF MARATHON 6 18 2 M 6
4 JESUS CAMPOS FRESNO 01:16:11 01:16:08 05:48 min/mile HALF MARATHON 7 32 1 M 7
15 ROBERT MEAD TEMPLETON 01:16:41 01:16:39 05:51 min/mile HALF MARATHON 8 30 2 M 8
520 JUAN RIVERA SALINAS 01:17:35 01:17:32 05:55 min/mile HALF MARATHON 9 37 1 M 9
5 JUSTIN CARRANCHO WATSONVILLE 01:18:36 01:18:33 05:59 min/mile HALF MARATHON 10 23 1 M 10
18 WILIAMS ORDAZ KING CITY 01:19:55 01:19:52 06:05 min/mile HALF MARATHON 11 21 2 M 11
6 TITO CHAIDEZ-MARTINEZ FREEDOM 01:20:06 01:20:03 06:06 min/mile HALF MARATHON 12 23 3 M 12
27 RUDY TOVAR SALINAS 01:23:43 01:23:39 06:23 min/mile HALF MARATHON 13 37 2 M 13
16 ALFREDO MEJIA SALINAS 01:24:01 01:23:59 06:24 min/mile HALF MARATHON 14 19 3 M 14
3 JEN BAYLISS SANRAMON 01:26:19 01:26:17 06:35 min/mile HALF MARATHON 15 47 O/A F 1
690 ROB BOYCE MONTEREY 01:26:32 01:26:26 06:35 min/mile HALF MARATHON 16 51 1 M 15
257 PEPE GONZALEZ PASO ROBLES 01:27:34 01:27:32 06:40 min/mile HALF MARATHON 17 25 1 M 16
604 RYAN TERRY LOCKEFORD 01:28:08 01:28:04 06:43 min/mile HALF MARATHON 18 36 3 M 17
7 LAN CLAYTON SALINAS 01:28:18 01:28:15 06:44 min/mile HALF MARATHON 19 50 O/A F 2
38 RICARDO MARAVILLA SALINAS 01:28:46 01:28:41 06:46 min/mile HALF MARATHON 20 38 4 M 18
169 SEAN CURRY SALINAS 01:28:54 01:28:49 06:46 min/mile HALF MARATHON 21 50 2 M 19
697 ELLIOT HOLLAND DENVER 01:29:17 01:29:13 06:48 min/mile HALF MARATHON 22 35 5 M 20
104 GREG BRAGGIN SUNNYVALE 01:29:25 01:29:23 06:49 min/mile HALF MARATHON 23 28 2 M 21
44 JOHN SHIPLEY 01:29:35 01:29:29 06:49 min/mile HALF MARATHON 24 30 3 M 22
13 AMY JOHNSTON SALINAS 01:30:02 01:29:59 06:52 min/mile HALF MARATHON 25 25 O/A F 3
589 KASSANDRA SPITLER MONTEREY 01:30:51 01:30:46 06:55 min/mile HALF MARATHON 26 30 1 F 4
437 ORLANDO MORALES SEASIDE 01:30:51 01:30:46 06:55 min/mile HALF MARATHON 27 38 6 M 23
441 PATRICK MOSS FRESNO 01:30:57 01:30:53 06:56 min/mile HALF MARATHON 28 63 1 M 24
159 SERGIO CORONEL SALINAS 01:31:26 01:31:18 06:58 min/mile HALF MARATHON 29 49 1 M 25
248 RYAN GOLDSMITH PACIFIC GROVE 01:32:30 01:32:12 07:02 min/mile HALF MARATHON 30 29 3 M 26
409 SEAN MCCORMICK PASO ROBLES 01:32:47 01:32:43 07:04 min/mile HALF MARATHON 31 54 3 M 27
9 BEATRIZ DUARTE WATSONVILLE 01:32:57 01:32:54 07:05 min/mile HALF MARATHON 32 21 1 F 5
593 KARINA STERRETT DESTIN 01:33:04 01:32:58 07:05 min/mile HALF MARATHON 33 29 1 F 6
645 ANDREW WARE MONTEREY 01:33:18 01:33:09 07:06 min/mile HALF MARATHON 34 39 7 M 28
434 SCOTT MOORE PACIFIC GROVE 01:33:28 01:33:11 07:06 min/mile HALF MARATHON 35 48 2 M 29
267 NICOLAAS GROBLER SALINAS 01:33:49 01:33:43 07:09 min/mile HALF MARATHON 36 50 4 M 30
186 ERIN DEMCHKO MONTEREY 01:34:03 01:33:57 07:10 min/mile HALF MARATHON 37 33 2 F 7
435 ALEJANDRO MORALES SANTA CRUZ 01:34:41 01:34:36 07:13 min/mile HALF MARATHON 38 44 2 M 31
219 JOEL FENLASON SANTA MARIA 01:34:50 01:34:43 07:13 min/mile HALF MARATHON 39 44 3 M 32
743 LORENZO CORTEZ LOPEZ MONTEREY 01:35:12 01:35:04 07:15 min/mile HALF MARATHON 40 39 8 M 33
535 OSCAR ROJAS GUZMAN SALINAS 01:35:09 01:35:07 07:15 min/mile HALF MARATHON 41 23 4 M 34
232 ALBERTO FRAIDE SALINAS 01:35:45 01:35:24 07:16 min/mile HALF MARATHON 42 56 1 M 35
572 JAMES SHIRLEY SAN FRANCISCO 01:35:34 01:35:28 07:17 min/mile HALF MARATHON 43 27 4 M 36
748 ENRIQUE SANCHEZ SALINAS 01:35:49 01:35:41 07:18 min/mile HALF MARATHON 44 39 9 M 37
714 IVAN JIMENEZ SALINAS 01:35:55 01:35:49 07:18 min/mile HALF MARATHON 45 38 10 M 38
168 ROBERT CULLEN KING CITY 01:36:19 01:36:03 07:19 min/mile HALF MARATHON 46 40 4 M 39
20 MONICA RUELAS HOLLISTER 01:36:32 01:36:30 07:21 min/mile HALF MARATHON 47 19 1 F 8
607 GERALD THOMAS SALINAS 01:36:42 01:36:37 07:22 min/mile HALF MARATHON 48 64 2 M 40
64 JOSE LUIS ANGUIANO CASTROVILLE 01:37:38 01:36:55 07:23 min/mile HALF MARATHON 49 44 5 M 41
615 JASON TRACY SALINAS 01:37:31 01:37:23 07:26 min/mile HALF MARATHON 50 36 11 M 42
772 entrants …

Winners

Tip: Slide the results table left and right to view more.
Overall
Bib Name City Gun Elapsed Chip Elapsed Pace Division Div Place Age Age Place Gender Gender Place
26 DIEGO LEON HOLLISTER 01:11:26 01:11:24 05:27 min/mile HALF MARATHON 1 23 O/A M 1
21 JORGE SANCHEZ SALINAS 01:13:39 01:13:36 05:37 min/mile HALF MARATHON 2 21 O/A M 2
14 ANDREW MARTINEZ SOLEDAD 01:14:28 01:14:26 05:40 min/mile HALF MARATHON 3 20 O/A M 3
3 JEN BAYLISS SANRAMON 01:26:19 01:26:17 06:35 min/mile HALF MARATHON 15 47 O/A F 1
7 LAN CLAYTON SALINAS 01:28:18 01:28:15 06:44 min/mile HALF MARATHON 19 50 O/A F 2
13 AMY JOHNSTON SALINAS 01:30:02 01:29:59 06:52 min/mile HALF MARATHON 25 25 O/A F 3
12 - 15
Bib Name City Gun Elapsed Chip Elapsed Pace Division Div Place Age Age Place Gender Gender Place
39 DAMIAN LOPEZ SOLEDAD 02:00:01 01:59:56 09:09 min/mile HALF MARATHON 220 13 1 M 150
1017 ALEXIS TAPIA SALINAS 02:05:30 02:04:55 09:32 min/mile HALF MARATHON 254 14 2 M 169
1005 HALLIER CORRES-FLORES SEASIDE 02:05:41 02:05:12 09:33 min/mile HALF MARATHON 256 15 3 M 171
1004 TOMAS CALUSDIAN SALINAS 02:36:45 02:35:37 11:52 min/mile HALF MARATHON 448 14 4 M 245
1006 THOMAS GUTSHALL SALINAS 03:14:00 03:13:17 14:45 min/mile HALF MARATHON 588 14 5 M 284
1015 ELENA PLETCHER SAN RAFAEL 01:56:53 01:56:44 08:54 min/mile HALF MARATHON 180 14 1 F 54
16 - 20
Bib Name City Gun Elapsed Chip Elapsed Pace Division Div Place Age Age Place Gender Gender Place
17 NICHOLAS MERILLANA ROYAL OAKS 01:15:58 01:15:54 05:47 min/mile HALF MARATHON 5 19 1 M 5
25 LUIS PEREZ GREENFIELD 01:16:02 01:16:00 05:48 min/mile HALF MARATHON 6 18 2 M 6
16 ALFREDO MEJIA SALINAS 01:24:01 01:23:59 06:24 min/mile HALF MARATHON 14 19 3 M 14
1021 DAVID HERRERA 01:55:22 01:55:13 08:47 min/mile HALF MARATHON 166 20 4 M 119
1010 JEREMIAH LEE SALINAS 02:03:40 02:03:28 09:25 min/mile HALF MARATHON 247 17 5 M 166
20 MONICA RUELAS HOLLISTER 01:36:32 01:36:30 07:21 min/mile HALF MARATHON 47 19 1 F 8
1013 KATIE NILI CLOVIS 01:43:28 01:43:19 07:53 min/mile HALF MARATHON 77 17 2 F 19
23 ISABELLE TORRES SALINAS 01:51:10 01:51:07 08:28 min/mile HALF MARATHON 132 18 3 F 34
1007 ANGIE JAUREGUI OXNARD 02:27:52 02:27:32 11:15 min/mile HALF MARATHON 390 20 4 F 164
1001 MIA MARTINEZ LOS ANGELES 02:42:14 02:41:54 12:21 min/mile HALF MARATHON 498 17 5 F 238
21 - 24
Bib Name City Gun Elapsed Chip Elapsed Pace Division Div Place Age Age Place Gender Gender Place
5 JUSTIN CARRANCHO WATSONVILLE 01:18:36 01:18:33 05:59 min/mile HALF MARATHON 10 23 1 M 10
18 WILIAMS ORDAZ KING CITY 01:19:55 01:19:52 06:05 min/mile HALF MARATHON 11 21 2 M 11
6 TITO CHAIDEZ-MARTINEZ FREEDOM 01:20:06 01:20:03 06:06 min/mile HALF MARATHON 12 23 3 M 12
535 OSCAR ROJAS GUZMAN SALINAS 01:35:09 01:35:07 07:15 min/mile HALF MARATHON 41 23 4 M 34
131 ROLAND CENTENO SEASIDE 01:44:52 01:44:39 07:59 min/mile HALF MARATHON 90 23 5 M 66
9 BEATRIZ DUARTE WATSONVILLE 01:32:57 01:32:54 07:05 min/mile HALF MARATHON 32 21 1 F 5
550 ALYSSA SANCHEZ SOLEDAD 01:41:21 01:41:18 07:43 min/mile HALF MARATHON 62 22 2 F 11
10 NICOLE FELIX SAN JUAN BAUTISTA 01:42:41 01:42:38 07:50 min/mile HALF MARATHON 71 21 3 F 16
147 SHANNON CHRISTENSEN SALINAS 01:50:05 01:49:41 08:22 min/mile HALF MARATHON 123 23 4 F 30
156 MARIAH CONNELL SPARKS 01:50:44 01:50:31 08:26 min/mile HALF MARATHON 128 24 5 F 32
25 - 29
Bib Name City Gun Elapsed Chip Elapsed Pace Division Div Place Age Age Place Gender Gender Place
257 PEPE GONZALEZ PASO ROBLES 01:27:34 01:27:32 06:40 min/mile HALF MARATHON 17 25 1 M 16
104 GREG BRAGGIN SUNNYVALE 01:29:25 01:29:23 06:49 min/mile HALF MARATHON 23 28 2 M 21
248 RYAN GOLDSMITH PACIFIC GROVE 01:32:30 01:32:12 07:02 min/mile HALF MARATHON 30 29 3 M 26
572 JAMES SHIRLEY SAN FRANCISCO 01:35:34 01:35:28 07:17 min/mile HALF MARATHON 43 27 4 M 36
83 MAX BEREZHNYY SAN FRANCISCO 01:39:02 01:38:25 07:30 min/mile HALF MARATHON 52 28 5 M 44
593 KARINA STERRETT DESTIN 01:33:04 01:32:58 07:05 min/mile HALF MARATHON 33 29 1 F 6
670 LESLIE ZABALA CARMEL VALLEY 01:41:35 01:41:27 07:44 min/mile HALF MARATHON 64 29 2 F 13
500 LIZZIE PRADER MENLO PARK 01:43:40 01:43:26 07:53 min/mile HALF MARATHON 79 25 3 F 20
379 KAITLIN LOUIE BURLINGAME 01:47:21 01:47:07 08:10 min/mile HALF MARATHON 103 29 4 F 25
574 ALEJANDRA SILVA SALINAS 01:54:01 01:53:55 08:41 min/mile HALF MARATHON 151 27 5 F 42
30 - 34
Bib Name City Gun Elapsed Chip Elapsed Pace Division Div Place Age Age Place Gender Gender Place
4 JESUS CAMPOS FRESNO 01:16:11 01:16:08 05:48 min/mile HALF MARATHON 7 32 1 M 7
15 ROBERT MEAD TEMPLETON 01:16:41 01:16:39 05:51 min/mile HALF MARATHON 8 30 2 M 8
44 JOHN SHIPLEY 01:29:35 01:29:29 06:49 min/mile HALF MARATHON 24 30 3 M 22
376 JOSE LOPEZ GREENFIELD 01:39:32 01:39:25 07:35 min/mile HALF MARATHON 54 33 4 M 45
213 DAVID ERSTAD PALATINE 01:40:22 01:40:01 07:38 min/mile HALF MARATHON 57 31 5 M 48
589 KASSANDRA SPITLER MONTEREY 01:30:51 01:30:46 06:55 min/mile HALF MARATHON 26 30 1 F 4
186 ERIN DEMCHKO MONTEREY 01:34:03 01:33:57 07:10 min/mile HALF MARATHON 37 33 2 F 7
338 JEN KELIHER SEASIDE 01:40:21 01:40:14 07:39 min/mile HALF MARATHON 58 32 3 F 10
554 ANGIE SANDOVAL SAN JOSE 01:41:42 01:41:39 07:45 min/mile HALF MARATHON 66 33 4 F 14
82 MARIA BELLUMORI MARINA 01:44:33 01:44:23 07:58 min/mile HALF MARATHON 85 33 5 F 24
35 - 39
Bib Name City Gun Elapsed Chip Elapsed Pace Division Div Place Age Age Place Gender Gender Place
520 JUAN RIVERA SALINAS 01:17:35 01:17:32 05:55 min/mile HALF MARATHON 9 37 1 M 9
27 RUDY TOVAR SALINAS 01:23:43 01:23:39 06:23 min/mile HALF MARATHON 13 37 2 M 13
604 RYAN TERRY LOCKEFORD 01:28:08 01:28:04 06:43 min/mile HALF MARATHON 18 36 3 M 17
38 RICARDO MARAVILLA SALINAS 01:28:46 01:28:41 06:46 min/mile HALF MARATHON 20 38 4 M 18
697 ELLIOT HOLLAND DENVER 01:29:17 01:29:13 06:48 min/mile HALF MARATHON 22 35 5 M 20
1025 MARISOL ALVAREZ 01:42:54 01:42:52 07:51 min/mile HALF MARATHON 72 39 1 F 17
77 JULIE BASSO SAN JOSE 01:43:39 01:43:34 07:54 min/mile HALF MARATHON 82 35 2 F 22
724 DANA STENVICK SAN GABRIEL 01:49:09 01:48:54 08:18 min/mile HALF MARATHON 118 36 3 F 28
352 YANA KUNITSKAYA SAN FRANCISCO 01:50:58 01:50:48 08:27 min/mile HALF MARATHON 130 35 4 F 33
120 JESSICA CAMPBELL SEASIDE 01:53:09 01:52:46 08:36 min/mile HALF MARATHON 145 36 5 F 40
40 - 44
Bib Name City Gun Elapsed Chip Elapsed Pace Division Div Place Age Age Place Gender Gender Place
12 SALVADOR GUERRERO CISNEROS OCOTLAN 01:15:35 01:15:33 05:46 min/mile HALF MARATHON 4 44 1 M 4
435 ALEJANDRO MORALES SANTA CRUZ 01:34:41 01:34:36 07:13 min/mile HALF MARATHON 38 44 2 M 31
219 JOEL FENLASON SANTA MARIA 01:34:50 01:34:43 07:13 min/mile HALF MARATHON 39 44 3 M 32
168 ROBERT CULLEN KING CITY 01:36:19 01:36:03 07:19 min/mile HALF MARATHON 46 40 4 M 39
64 JOSE LUIS ANGUIANO CASTROVILLE 01:37:38 01:36:55 07:23 min/mile HALF MARATHON 49 44 5 M 41
633 CHRISTINE VILLASENOR SOLEDAD 01:47:23 01:47:16 08:11 min/mile HALF MARATHON 106 44 1 F 26
598 MELISSA SWENSON BAKERSFIELD 01:54:15 01:54:08 08:42 min/mile HALF MARATHON 154 41 2 F 44
29 STEPHANIE TROSTT SALINAS 01:55:51 01:55:35 08:49 min/mile HALF MARATHON 173 42 3 F 51
544 LISA RYAN DURHAM 02:02:14 02:01:57 09:18 min/mile HALF MARATHON 237 40 4 F 77
511 ANDI RECHT BIGFORK 02:03:40 02:03:03 09:23 min/mile HALF MARATHON 242 44 5 F 79
45 - 49
Bib Name City Gun Elapsed Chip Elapsed Pace Division Div Place Age Age Place Gender Gender Place
159 SERGIO CORONEL SALINAS 01:31:26 01:31:18 06:58 min/mile HALF MARATHON 29 49 1 M 25
434 SCOTT MOORE PACIFIC GROVE 01:33:28 01:33:11 07:06 min/mile HALF MARATHON 35 48 2 M 29
48 ESTABAN ORTEGA 01:41:00 01:40:52 07:41 min/mile HALF MARATHON 60 49 3 M 50
46 RICK BRAVO PRUNEDALE 01:42:24 01:42:16 07:48 min/mile HALF MARATHON 69 49 4 M 54
351 KEITH KRUEGER MARINA 01:43:14 01:43:03 07:51 min/mile HALF MARATHON 75 45 5 M 57
733 AYA VAN WAGNER LOS GATOS 01:38:53 01:38:46 07:32 min/mile HALF MARATHON 53 47 1 F 9
566 MONIKA SCOTT SALINAS 01:42:13 01:42:00 07:47 min/mile HALF MARATHON 67 45 2 F 15
134 ALICE CERVANTES SALINAS 01:54:09 01:53:56 08:41 min/mile HALF MARATHON 152 49 3 F 43
210 MARICELA ENCISO SANTA CRUZ 01:57:37 01:57:14 08:56 min/mile HALF MARATHON 183 47 4 F 55
397 SONJA MARTIN PASO ROBLES 02:01:38 02:01:09 09:14 min/mile HALF MARATHON 228 48 5 F 75
50 - 54
Bib Name City Gun Elapsed Chip Elapsed Pace Division Div Place Age Age Place Gender Gender Place
690 ROB BOYCE MONTEREY 01:26:32 01:26:26 06:35 min/mile HALF MARATHON 16 51 1 M 15
169 SEAN CURRY SALINAS 01:28:54 01:28:49 06:46 min/mile HALF MARATHON 21 50 2 M 19
409 SEAN MCCORMICK PASO ROBLES 01:32:47 01:32:43 07:04 min/mile HALF MARATHON 31 54 3 M 27
267 NICOLAAS GROBLER SALINAS 01:33:49 01:33:43 07:09 min/mile HALF MARATHON 36 50 4 M 30
36 JOSE ALBERTO SALINAS 01:43:53 01:43:50 07:55 min/mile HALF MARATHON 83 51 5 M 61
98 STEPHANIE BOUQUET SALINAS 01:41:33 01:41:24 07:44 min/mile HALF MARATHON 63 51 1 F 12
721 KATE RIDER CARMEL VALLEY 01:43:36 01:43:26 07:53 min/mile HALF MARATHON 80 51 2 F 21
95 TATIANA BOGATYREVA MOSCOW 01:48:57 01:48:50 08:18 min/mile HALF MARATHON 117 50 3 F 27
691 KELLI BROGAN PORTOLA VALLY 01:50:29 01:50:11 08:24 min/mile HALF MARATHON 127 52 4 F 31
522 TINA ROBELLA SAN LUIS OBISPO 01:58:52 01:58:23 09:02 min/mile HALF MARATHON 195 50 5 F 60
55 - 59
Bib Name City Gun Elapsed Chip Elapsed Pace Division Div Place Age Age Place Gender Gender Place
232 ALBERTO FRAIDE SALINAS 01:35:45 01:35:24 07:16 min/mile HALF MARATHON 42 56 1 M 35
373 THOMAS LOCKHART SALINAS 01:41:19 01:41:15 07:43 min/mile HALF MARATHON 61 57 2 M 51
686 DAVID VIDMAR DIXON 01:41:49 01:41:39 07:45 min/mile HALF MARATHON 65 57 3 M 52
603 ALEX TAURKE PACIFIC GROVE 01:43:10 01:42:55 07:51 min/mile HALF MARATHON 73 56 4 M 56
422 JUN MENG MONTEREY 01:45:23 01:45:14 08:01 min/mile HALF MARATHON 95 56 5 M 71
171 KELLY DAME SANRAFAEL 01:43:12 01:42:58 07:51 min/mile HALF MARATHON 74 56 1 F 18
569 LINDA SERENO SALINAS 01:44:07 01:44:02 07:56 min/mile HALF MARATHON 84 58 2 F 23
577 DEBBIE SIMS SALINAS 01:52:27 01:52:17 08:34 min/mile HALF MARATHON 142 56 3 F 38
322 ELLIE JOHNSON CARMEL VALLEY 01:55:08 01:54:29 08:44 min/mile HALF MARATHON 157 57 4 F 45
393 DEBRA MARES SAN LUIS OBISPO 02:01:12 02:00:44 09:12 min/mile HALF MARATHON 225 56 5 F 72
60 - 64
Bib Name City Gun Elapsed Chip Elapsed Pace Division Div Place Age Age Place Gender Gender Place
441 PATRICK MOSS FRESNO 01:30:57 01:30:53 06:56 min/mile HALF MARATHON 28 63 1 M 24
607 GERALD THOMAS SALINAS 01:36:42 01:36:37 07:22 min/mile HALF MARATHON 48 64 2 M 40
94 ANDREY BOGATYREV MOSCOW 01:44:38 01:44:31 07:58 min/mile HALF MARATHON 88 61 3 M 64
596 CHRISTOPHER SULLIVAN NEWARK 01:51:21 01:51:08 08:29 min/mile HALF MARATHON 133 61 4 M 99
288 PATRICK HARR PACIFIC GROVE 01:57:10 01:56:49 08:55 min/mile HALF MARATHON 182 63 5 M 128
498 DENISE POSSON PEBBLE BEACH 02:11:30 02:11:14 10:01 min/mile HALF MARATHON 296 62 1 F 105
215 EVA ESPINOZA WATSONVILLE 02:16:40 02:16:04 10:23 min/mile HALF MARATHON 335 62 2 F 131
479 DOROTHY PAXMAN SIMI VALLEY 02:17:52 02:17:02 10:27 min/mile HALF MARATHON 338 62 3 F 133
105 MARGARET BREWINGTON APTOS 02:28:25 02:28:06 11:18 min/mile HALF MARATHON 395 64 4 F 167
195 JILL DONNELLY APTOS 02:33:07 02:32:48 11:39 min/mile HALF MARATHON 435 62 5 F 193
65 - 69
Bib Name City Gun Elapsed Chip Elapsed Pace Division Div Place Age Age Place Gender Gender Place
410 BOBBY MCKEE LA SELVA BCH 01:40:32 01:40:23 07:39 min/mile HALF MARATHON 59 69 1 M 49
715 SKIP LATHAM SALINAS 01:59:03 01:58:48 09:04 min/mile HALF MARATHON 204 65 2 M 141
637 JOHN VOLKMAN FRESNO 02:05:35 02:05:02 09:32 min/mile HALF MARATHON 255 67 3 M 170
439 MITSUGU MORI SEASIDE 02:12:43 02:12:26 10:06 min/mile HALF MARATHON 307 66 4 M 194
180 MICHAEL DE SALVATORE PRUNEDALE 02:17:30 02:17:14 10:28 min/mile HALF MARATHON 339 66 5 M 205
361 BARBARA LEE MONTEREY 02:06:41 02:06:00 09:37 min/mile HALF MARATHON 261 67 1 F 89
475 AREA PARKE MODESTO 02:40:21 02:39:54 12:12 min/mile HALF MARATHON 486 66 2 F 230
151 SHERI CLINE SALINAS 03:02:04 03:01:11 13:49 min/mile HALF MARATHON 564 67 3 F 286
279 JULIE HAGER SOLVANG 03:16:41 03:15:27 14:55 min/mile HALF MARATHON 596 66 4 F 307
179 VICTORIA DAVIS MARINA 03:38:46 03:37:34 16:36 min/mile HALF MARATHON 633 66 5 F 338
70 - 74
Bib Name City Gun Elapsed Chip Elapsed Pace Division Div Place Age Age Place Gender Gender Place
198 MICHAEL DOVE SALINAS 01:55:48 01:55:39 08:49 min/mile HALF MARATHON 174 71 1 M 123
606 TOM THAYER SALINAS 02:10:19 02:09:55 09:55 min/mile HALF MARATHON 283 72 2 M 184
536 TOM ROLANDER PACIFIC GROVE 02:12:57 02:12:27 10:06 min/mile HALF MARATHON 308 70 3 M 195
140 JOHNNY CHAVARRIA SALINAS 02:29:39 02:28:30 11:20 min/mile HALF MARATHON 401 70 4 M 230
33 SANDAVZ ATONIA CASTROVILLE 02:33:36 02:32:29 11:38 min/mile HALF MARATHON 432 72 5 M 240
620 CAROL TURNER NEWARK 02:50:40 02:50:10 12:59 min/mile HALF MARATHON 526 73 1 F 257
56 MARY ADAMS PEBBLE BEACH 03:40:24 03:39:27 16:45 min/mile HALF MARATHON 634 71 2 F 339
652 JANE WILLIAMS CARMEL VALLEY 03:40:24 03:39:27 16:45 min/mile HALF MARATHON 635 73 3 F 340
420 RUTH MENDES DA COSTA HOLLISTER 03:48:04 03:47:33 17:22 min/mile HALF MARATHON 640 71 4 F 345
75 - 98
Bib Name City Gun Elapsed Chip Elapsed Pace Division Div Place Age Age Place Gender Gender Place
318 JOSEPH JASIK NEWHALL 03:05:48 03:04:47 14:06 min/mile HALF MARATHON 573 75 1 M 280
332 PHYLLIS KARSTEN LOS GATOS 03:34:04 03:32:57 16:15 min/mile HALF MARATHON 625 93 1 F 331

Race Info

Participants:
1046
Last Updated:
8/9/2018 9:02:45 AM

Results are preliminary for 5 days.
Click your name to view a video of you finishing.

Tip: Swipe the results table to view more.

Search for Name, Bib, City, State or Team
in the field above… by clicking the icon below…

Notes & Race Statistics

HALF MARATHON - 648


Male
Total Finishers Avg Pace
296 09:40

Female
Total Finishers Avg Pace
352 11:34

5K - 206


Male
Total Finishers Avg Pace
67 00:00

Female
Total Finishers Avg Pace
139 00:00
Timed using RM Timing Systems
Take control of your event
A product of US Sports Timing

Have a question or need to make a correction?

Submit a Result Correction